createdAt,value
2023-05-16T00:00:20.133Z,6.90
2023-05-16T00:02:48.333Z,7.10
2023-05-16T00:05:15.827Z,6.30
2023-05-16T00:07:44.314Z,6.30
2023-05-16T00:10:11.705Z,6.40
2023-05-16T00:12:39.846Z,6.20
2023-05-16T00:15:09.059Z,5.60
2023-05-16T00:17:36.731Z,6.10
2023-05-16T00:20:11.317Z,5.80
2023-05-16T00:22:38.453Z,5.30
2023-05-16T00:25:05.964Z,5.50
2023-05-16T00:27:36.184Z,5.60
2023-05-16T00:30:04.018Z,5.70
2023-05-16T00:32:31.513Z,6.20
2023-05-16T00:34:58.787Z,6.10
2023-05-16T00:37:25.821Z,6.00
2023-05-16T00:39:54.303Z,5.80
2023-05-16T00:42:21.595Z,6.00
2023-05-16T00:44:48.740Z,6.30
2023-05-16T00:47:16.184Z,5.80
2023-05-16T00:49:43.244Z,5.60
2023-05-16T00:52:10.824Z,6.10
2023-05-16T00:54:38.518Z,5.70
2023-05-16T00:57:07.025Z,6.60
2023-05-16T00:59:34.121Z,6.10
2023-05-16T01:02:01.586Z,6.50
2023-05-16T01:04:28.583Z,6.40
2023-05-16T01:06:57.339Z,6.30
2023-05-16T01:09:24.329Z,6.30
2023-05-16T01:12:15.277Z,7.80
2023-05-16T01:15:09.463Z,9.30
2023-05-16T01:18:09.038Z,9.00
2023-05-16T01:20:52.657Z,7.80
2023-05-16T01:23:51.826Z,6.70
2023-05-16T01:26:26.805Z,6.20
2023-05-16T01:28:54.448Z,6.00
2023-05-16T01:31:22.793Z,5.90
2023-05-16T01:33:51.519Z,5.80
2023-05-16T01:36:26.749Z,6.20
2023-05-16T01:39:19.573Z,6.20
2023-05-16T01:42:09.190Z,6.30
2023-05-16T01:44:59.738Z,6.00
2023-05-16T01:47:27.864Z,6.10
2023-05-16T01:50:03.693Z,6.20
2023-05-16T01:52:48.459Z,5.90
2023-05-16T01:55:23.542Z,5.70
2023-05-16T01:57:50.676Z,5.90
2023-05-16T02:00:17.790Z,5.60
2023-05-16T02:02:44.784Z,5.20
2023-05-16T02:05:11.911Z,5.60
2023-05-16T02:07:38.891Z,5.30
2023-05-16T02:10:07.666Z,6.20
2023-05-16T02:12:36.781Z,5.90
2023-05-16T02:15:03.972Z,5.90
2023-05-16T02:17:31.179Z,5.70
2023-05-16T02:19:58.188Z,5.50
2023-05-16T02:22:25.289Z,5.80
2023-05-16T02:24:54.027Z,5.90
2023-05-16T02:27:21.060Z,5.50
2023-05-16T02:29:48.042Z,5.70
2023-05-16T02:32:15.060Z,5.40
2023-05-16T02:34:43.243Z,5.40
2023-05-16T02:37:13.073Z,5.80
2023-05-16T02:39:40.596Z,5.70
2023-05-16T02:42:07.757Z,5.50
2023-05-16T02:44:34.788Z,5.40
2023-05-16T02:47:01.764Z,5.10
2023-05-16T02:49:28.834Z,5.10
2023-05-16T02:51:55.994Z,5.50
2023-05-16T02:54:23.019Z,5.40
2023-05-16T02:56:50.107Z,5.20
2023-05-16T02:59:19.728Z,5.30
2023-05-16T03:01:46.851Z,5.10
2023-05-16T03:04:14.113Z,5.30
2023-05-16T03:06:41.449Z,4.80
2023-05-16T03:09:08.547Z,5.10
2023-05-16T03:11:37.078Z,5.30
2023-05-16T03:14:04.254Z,5.20
2023-05-16T03:16:31.299Z,5.00
2023-05-16T03:18:58.414Z,5.30
2023-05-16T03:21:26.303Z,5.10
2023-05-16T03:23:55.399Z,5.10
2023-05-16T03:26:23.066Z,5.10
2023-05-16T03:28:52.169Z,5.00
2023-05-16T03:31:19.616Z,4.80
2023-05-16T03:33:46.895Z,4.90
2023-05-16T03:36:13.953Z,5.10
2023-05-16T03:38:41.017Z,4.80
2023-05-16T03:41:08.088Z,6.40
2023-05-16T03:43:35.218Z,5.20
2023-05-16T03:46:02.732Z,4.90
2023-05-16T03:48:29.819Z,4.70
2023-05-16T03:50:57.469Z,4.50
2023-05-16T03:53:24.509Z,4.20
2023-05-16T03:55:52.161Z,4.20
2023-05-16T03:58:19.234Z,4.20
2023-05-16T04:00:47.009Z,4.20
2023-05-16T04:03:14.136Z,4.10
2023-05-16T04:05:41.397Z,3.90
2023-05-16T04:08:08.542Z,3.80
2023-05-16T04:10:36.152Z,3.70
2023-05-16T04:13:03.259Z,3.90
2023-05-16T04:15:30.320Z,3.80
2023-05-16T04:17:57.484Z,3.60
2023-05-16T04:20:24.480Z,4.00
2023-05-16T04:22:52.145Z,4.00
2023-05-16T04:25:19.204Z,4.20
2023-05-16T04:27:46.228Z,3.60
2023-05-16T04:30:14.394Z,3.30
2023-05-16T04:32:41.624Z,3.60
2023-05-16T04:35:09.519Z,3.30
2023-05-16T04:37:37.055Z,3.90
2023-05-16T04:40:04.318Z,4.00
2023-05-16T04:42:32.188Z,3.50
2023-05-16T04:44:59.253Z,3.50
2023-05-16T04:47:26.331Z,3.60
2023-05-16T04:49:53.428Z,3.60
2023-05-16T04:52:20.598Z,3.50
2023-05-16T04:54:47.609Z,4.20
2023-05-16T04:57:14.650Z,4.70
2023-05-16T04:59:41.693Z,4.50
2023-05-16T05:02:08.911Z,4.10
2023-05-16T05:04:36.336Z,5.20
2023-05-16T05:07:03.455Z,5.10
2023-05-16T05:09:30.439Z,6.00
2023-05-16T05:11:57.438Z,6.80
2023-05-16T05:14:24.476Z,5.90
2023-05-16T05:16:51.636Z,6.70
2023-05-16T05:19:18.769Z,6.30
2023-05-16T05:21:45.820Z,14.10
2023-05-16T05:24:12.837Z,14.60
2023-05-16T05:26:39.891Z,11.80
2023-05-16T05:29:06.876Z,10.80
2023-05-16T05:31:35.218Z,12.20
2023-05-16T05:34:03.484Z,11.40
2023-05-16T05:36:31.357Z,8.70
2023-05-16T05:38:58.362Z,10.20
2023-05-16T05:41:25.360Z,7.90
2023-05-16T05:43:52.396Z,7.70
2023-05-16T05:46:19.561Z,8.20
2023-05-16T05:48:46.789Z,9.60
2023-05-16T05:51:14.533Z,8.50
2023-05-16T05:53:41.952Z,7.80
2023-05-16T05:56:09.564Z,7.80
2023-05-16T05:58:36.683Z,8.40
2023-05-16T06:01:03.834Z,10.00
2023-05-16T06:03:30.921Z,9.30
2023-05-16T06:05:58.092Z,9.50
2023-05-16T06:08:25.325Z,10.00
2023-05-16T06:10:52.645Z,9.30
2023-05-16T06:13:19.687Z,8.90
2023-05-16T06:15:51.548Z,9.60
2023-05-16T06:18:18.765Z,11.30
2023-05-16T06:20:45.971Z,10.50
2023-05-16T06:23:13.068Z,10.80
2023-05-16T06:25:40.047Z,12.10
2023-05-16T06:28:07.026Z,10.40
2023-05-16T06:30:33.990Z,9.80
2023-05-16T06:33:01.025Z,9.40
2023-05-16T06:35:28.298Z,9.30
2023-05-16T06:37:55.582Z,10.60
2023-05-16T06:40:22.671Z,10.10
2023-05-16T06:42:49.692Z,9.40
2023-05-16T06:45:16.867Z,9.60
2023-05-16T06:47:43.915Z,9.70
2023-05-16T06:50:11.559Z,9.30
2023-05-16T06:52:38.697Z,9.10
2023-05-16T06:55:06.230Z,10.20
2023-05-16T06:57:33.375Z,9.10
2023-05-16T07:00:00.469Z,8.70
2023-05-16T07:02:27.585Z,9.00
2023-05-16T07:04:55.189Z,7.50
2023-05-16T07:08:01.110Z,6.10
2023-05-16T07:10:28.158Z,7.80
2023-05-16T07:12:55.724Z,6.40
2023-05-16T07:15:22.808Z,6.50
2023-05-16T07:17:51.238Z,7.10
2023-05-16T07:20:18.564Z,6.40
2023-05-16T07:22:45.830Z,5.10
2023-05-16T07:25:14.725Z,5.60
2023-05-16T07:27:42.365Z,6.80
2023-05-16T07:30:11.373Z,4.90
2023-05-16T07:32:38.530Z,3.90
2023-05-16T07:35:05.958Z,4.10
2023-05-16T07:37:33.110Z,3.90
2023-05-16T07:40:00.379Z,4.30
2023-05-16T07:42:27.750Z,3.00
2023-05-16T07:44:54.872Z,3.70
2023-05-16T07:47:22.002Z,4.00
2023-05-16T07:49:49.307Z,3.70
2023-05-16T07:52:16.361Z,2.90
2023-05-16T07:54:43.510Z,3.10
2023-05-16T07:57:10.732Z,2.90
2023-05-16T07:59:37.848Z,2.20
2023-05-16T08:02:05.189Z,1.90
2023-05-16T08:04:32.265Z,2.10
2023-05-16T08:06:59.636Z,2.00
2023-05-16T08:09:26.769Z,2.00
2023-05-16T08:11:53.793Z,2.00
2023-05-16T08:14:20.854Z,1.90
2023-05-16T08:16:48.330Z,2.00
2023-05-16T08:19:15.436Z,2.20
2023-05-16T08:21:42.471Z,2.00
2023-05-16T08:24:11.392Z,1.60
2023-05-16T08:26:38.845Z,2.00
2023-05-16T08:29:06.177Z,2.60
2023-05-16T08:31:33.397Z,2.50
2023-05-16T08:34:02.012Z,2.50
2023-05-16T08:36:29.072Z,2.60
2023-05-16T08:38:56.236Z,1.80
2023-05-16T08:41:23.411Z,2.50
2023-05-16T08:43:50.714Z,2.70
2023-05-16T08:46:19.177Z,2.60
2023-05-16T08:48:46.588Z,3.70
2023-05-16T08:51:13.645Z,2.10
2023-05-16T08:53:46.636Z,2.20
2023-05-16T08:56:13.799Z,2.90
2023-05-16T08:58:41.002Z,2.50
2023-05-16T09:01:09.521Z,2.10
2023-05-16T09:03:39.690Z,2.60
2023-05-16T09:06:08.152Z,3.10
2023-05-16T09:08:35.658Z,3.10
2023-05-16T09:11:02.863Z,4.50
2023-05-16T09:13:29.996Z,3.10
2023-05-16T09:16:17.005Z,4.50
2023-05-16T09:18:57.401Z,5.10
2023-05-16T09:21:32.534Z,4.90
2023-05-16T09:24:06.433Z,4.50
2023-05-16T09:26:35.951Z,5.00
2023-05-16T09:29:11.363Z,5.20
2023-05-16T09:31:38.882Z,5.40
2023-05-16T09:34:09.571Z,5.90
2023-05-16T09:36:37.041Z,5.70
2023-05-16T09:39:04.224Z,5.50
2023-05-16T09:41:37.778Z,5.60
2023-05-16T09:44:06.758Z,5.60
2023-05-16T09:46:38.466Z,6.00
2023-05-16T09:49:07.685Z,6.10
2023-05-16T09:51:34.942Z,5.70
2023-05-16T09:54:02.016Z,5.70
2023-05-16T09:56:30.359Z,5.20
2023-05-16T09:58:57.465Z,5.10
2023-05-16T10:01:25.510Z,5.20
2023-05-16T10:03:52.896Z,5.60
2023-05-16T10:06:20.244Z,5.60
2023-05-16T10:08:47.318Z,5.10
2023-05-16T10:11:14.377Z,5.10
2023-05-16T10:13:41.734Z,4.90
2023-05-16T10:16:11.727Z,5.10
2023-05-16T10:18:39.726Z,4.80
2023-05-16T10:21:11.278Z,4.70
2023-05-16T10:23:41.894Z,4.20
2023-05-16T10:26:09.306Z,4.20
2023-05-16T10:28:36.568Z,4.20
2023-05-16T10:31:03.681Z,4.40
2023-05-16T10:33:31.319Z,2.10
2023-05-16T10:35:58.423Z,1.90
2023-05-16T10:38:27.332Z,1.60
2023-05-16T10:40:54.451Z,1.70
2023-05-16T10:43:27.217Z,1.70
2023-05-16T10:45:56.539Z,1.60
2023-05-16T10:48:31.354Z,1.60
2023-05-16T10:50:58.524Z,1.80
2023-05-16T10:53:33.709Z,1.70
2023-05-16T10:56:01.182Z,1.60
2023-05-16T10:58:31.451Z,1.50
2023-05-16T11:01:17.504Z,1.50
2023-05-16T11:04:06.048Z,1.50
2023-05-16T11:06:45.096Z,1.50
2023-05-16T11:09:13.645Z,1.50
2023-05-16T11:11:53.255Z,1.70
2023-05-16T11:14:29.103Z,1.80
2023-05-16T11:17:03.426Z,1.60
2023-05-16T11:19:42.099Z,1.80
2023-05-16T11:22:31.409Z,2.10
2023-05-16T11:25:02.405Z,1.80
2023-05-16T11:27:31.295Z,1.70
2023-05-16T11:30:07.644Z,1.80
2023-05-16T11:32:35.953Z,1.70
2023-05-16T11:35:04.397Z,1.70
2023-05-16T11:37:31.533Z,1.80
2023-05-16T11:40:02.523Z,1.50
2023-05-16T11:42:37.748Z,1.70
2023-05-16T11:45:25.821Z,1.80
2023-05-16T11:47:53.258Z,1.80
2023-05-16T11:50:26.603Z,1.80
2023-05-16T11:52:54.802Z,1.80
2023-05-16T11:55:36.758Z,2.00
2023-05-16T11:58:08.426Z,1.90
2023-05-16T12:00:36.004Z,1.90
2023-05-16T12:03:08.575Z,1.90
2023-05-16T12:08:05.299Z,1.70
2023-05-16T12:10:35.191Z,2.00
2023-05-16T12:13:02.450Z,1.60
2023-05-16T12:15:29.864Z,1.90
2023-05-16T12:17:57.352Z,1.90
2023-05-16T12:20:26.380Z,1.80
2023-05-16T12:22:53.611Z,2.00
2023-05-16T12:25:32.319Z,1.90
2023-05-16T12:28:01.234Z,2.10
2023-05-16T12:30:29.772Z,2.40
2023-05-16T12:33:01.465Z,2.40
2023-05-16T12:35:33.602Z,2.90
2023-05-16T12:38:04.368Z,2.60
2023-05-16T12:40:31.583Z,2.70
2023-05-16T12:42:58.687Z,2.60
2023-05-16T12:45:27.970Z,3.20
2023-05-16T12:47:55.181Z,3.10
2023-05-16T12:50:23.243Z,3.00
2023-05-16T12:52:51.531Z,3.10
2023-05-16T12:55:19.232Z,3.70
2023-05-16T12:57:48.097Z,3.60
2023-05-16T13:00:16.275Z,3.90
2023-05-16T13:02:43.494Z,5.00
2023-05-16T13:05:11.249Z,5.10
2023-05-16T13:07:40.949Z,6.30
2023-05-16T13:10:10.953Z,6.30
2023-05-16T13:12:39.476Z,5.60
2023-05-16T13:15:07.958Z,5.10
2023-05-16T13:17:35.720Z,4.20
2023-05-16T13:20:07.216Z,4.10
2023-05-16T13:22:34.662Z,4.00
2023-05-16T13:25:02.043Z,4.00
2023-05-16T13:27:29.059Z,4.60
2023-05-16T13:29:56.073Z,4.30
2023-05-16T13:32:23.078Z,3.90
2023-05-16T13:34:50.081Z,3.30
2023-05-16T13:37:17.981Z,2.80
2023-05-16T13:39:45.050Z,2.60
2023-05-16T13:42:12.068Z,2.30
2023-05-16T13:44:39.468Z,2.50
2023-05-16T13:47:06.657Z,2.30
2023-05-16T13:49:33.761Z,2.60
2023-05-16T13:52:01.899Z,2.60
2023-05-16T13:54:29.011Z,2.20
2023-05-16T13:56:56.190Z,2.30
2023-05-16T13:59:44.740Z,2.40
2023-05-16T14:02:10.888Z,2.30
2023-05-16T14:04:38.085Z,2.50
2023-05-16T14:07:05.550Z,2.20
2023-05-16T14:09:35.233Z,2.30
2023-05-16T14:12:05.248Z,3.00
2023-05-16T14:14:32.289Z,3.40
2023-05-16T14:16:59.740Z,3.30
2023-05-16T14:19:26.979Z,2.50
2023-05-16T14:21:54.199Z,2.90
2023-05-16T14:24:21.346Z,2.70
2023-05-16T14:26:48.487Z,2.60
2023-05-16T14:29:15.558Z,2.60
2023-05-16T14:31:42.717Z,2.80
2023-05-16T14:34:10.162Z,2.70
2023-05-16T14:36:37.284Z,2.70
2023-05-16T14:39:04.429Z,2.50
2023-05-16T14:41:31.546Z,2.50
2023-05-16T14:43:58.571Z,3.00
2023-05-16T14:46:25.636Z,3.60
2023-05-16T14:48:52.878Z,3.70
2023-05-16T14:51:19.972Z,2.60
2023-05-16T14:53:47.466Z,2.70
2023-05-16T14:56:14.751Z,3.00
2023-05-16T14:58:41.782Z,2.70
2023-05-16T15:01:08.871Z,2.60
2023-05-16T15:03:53.609Z,2.70
2023-05-16T15:06:23.139Z,2.90
2023-05-16T15:08:50.240Z,3.20
2023-05-16T15:11:17.317Z,4.00
2023-05-16T15:13:44.393Z,6.60
2023-05-16T15:16:11.672Z,5.80
2023-05-16T15:18:38.904Z,5.10
2023-05-16T15:21:06.177Z,4.50
2023-05-16T15:23:33.386Z,4.20
2023-05-16T15:26:00.421Z,4.30
2023-05-16T15:28:27.490Z,3.80
2023-05-16T15:30:54.499Z,3.50
2023-05-16T15:33:21.598Z,3.70
2023-05-16T15:35:48.733Z,3.90
2023-05-16T15:38:15.985Z,3.80
2023-05-16T15:40:43.051Z,4.00
2023-05-16T15:43:10.123Z,3.20
2023-05-16T15:45:39.919Z,2.50
2023-05-16T15:48:07.488Z,2.40
2023-05-16T15:50:34.605Z,2.10
2023-05-16T15:53:01.748Z,2.20
2023-05-16T15:55:29.020Z,2.10
2023-05-16T15:57:58.615Z,2.10
2023-05-16T16:00:25.760Z,2.20
2023-05-16T16:02:53.115Z,2.10
2023-05-16T16:05:20.200Z,2.50
2023-05-16T16:07:47.270Z,2.50
2023-05-16T16:10:14.540Z,2.20
2023-05-16T16:12:41.887Z,2.50
2023-05-16T16:15:10.527Z,3.10
2023-05-16T16:17:37.553Z,2.80
2023-05-16T16:20:05.044Z,4.90
2023-05-16T16:22:32.055Z,3.90
2023-05-16T16:24:59.138Z,4.30
2023-05-16T16:27:26.358Z,4.00
2023-05-16T16:29:53.401Z,3.50
2023-05-16T16:32:20.469Z,3.70
2023-05-16T16:34:48.508Z,3.40
2023-05-16T16:37:15.859Z,2.90
2023-05-16T16:39:43.036Z,2.90
2023-05-16T16:42:10.265Z,3.30
2023-05-16T16:44:37.309Z,2.90
2023-05-16T16:47:04.717Z,2.70
2023-05-16T16:49:31.787Z,3.10
2023-05-16T16:51:58.959Z,3.10
2023-05-16T16:54:26.061Z,3.00
2023-05-16T16:56:53.160Z,2.90
2023-05-16T16:59:20.203Z,2.80
2023-05-16T17:01:47.282Z,3.30
2023-05-16T17:04:14.415Z,3.10
2023-05-16T17:06:41.891Z,3.60
2023-05-16T17:09:13.826Z,3.90
2023-05-16T17:11:42.356Z,4.20
2023-05-16T17:14:10.947Z,3.60
2023-05-16T17:16:38.678Z,6.70
2023-05-16T17:19:05.828Z,5.30
2023-05-16T17:21:34.816Z,4.10
2023-05-16T17:24:03.785Z,4.70
2023-05-16T17:26:31.882Z,7.30
2023-05-16T17:29:00.435Z,9.50
2023-05-16T17:31:31.036Z,12.20
2023-05-16T17:33:58.153Z,7.30
2023-05-16T17:36:25.145Z,5.30
2023-05-16T17:38:52.202Z,3.90
2023-05-16T17:41:19.288Z,3.20
2023-05-16T17:43:47.252Z,3.20
2023-05-16T17:46:15.116Z,3.80
2023-05-16T17:48:42.520Z,3.50
2023-05-16T17:51:09.808Z,3.50
2023-05-16T17:53:37.843Z,3.50
2023-05-16T17:56:05.288Z,3.90
2023-05-16T17:58:32.359Z,3.10
2023-05-16T18:00:59.405Z,3.30
2023-05-16T18:03:27.738Z,3.50
2023-05-16T18:05:54.957Z,3.60
2023-05-16T18:08:22.143Z,3.40
2023-05-16T18:10:52.228Z,3.60
2023-05-16T18:13:22.291Z,3.70
2023-05-16T18:15:49.605Z,3.30
2023-05-16T18:18:20.221Z,3.40
2023-05-16T18:20:50.990Z,3.70
2023-05-16T18:23:18.060Z,3.70
2023-05-16T18:25:45.169Z,3.80
2023-05-16T18:28:12.420Z,4.10
2023-05-16T18:30:39.617Z,4.40
2023-05-16T18:33:06.900Z,4.60
2023-05-16T18:35:34.133Z,5.40
2023-05-16T18:38:01.433Z,4.90
2023-05-16T18:40:30.352Z,4.80
2023-05-16T18:42:58.761Z,5.40
2023-05-16T18:45:26.558Z,5.00
2023-05-16T18:47:53.960Z,4.80
2023-05-16T18:50:21.922Z,4.80
2023-05-16T18:52:50.183Z,5.30
2023-05-16T18:55:17.335Z,5.60
2023-05-16T18:57:45.505Z,5.80
2023-05-16T19:00:13.480Z,6.40
2023-05-16T19:02:42.544Z,5.90
2023-05-16T19:05:10.995Z,6.20
2023-05-16T19:07:38.298Z,6.10
2023-05-16T19:10:07.171Z,6.20
2023-05-16T19:12:34.472Z,6.50
2023-05-16T19:15:02.933Z,7.00
2023-05-16T19:17:30.418Z,6.90
2023-05-16T19:19:58.306Z,6.30
2023-05-16T19:22:25.517Z,6.30
2023-05-16T19:25:47.477Z,6.10
2023-05-16T19:28:16.168Z,5.90
2023-05-16T19:30:44.378Z,5.50
2023-05-16T19:33:11.511Z,5.80
2023-05-16T19:35:39.738Z,6.00
2023-05-16T19:38:07.930Z,5.70
2023-05-16T19:40:35.037Z,5.70
2023-05-16T19:43:02.219Z,6.00
2023-05-16T19:45:29.511Z,6.00
2023-05-16T19:47:56.954Z,6.10
2023-05-16T19:50:24.168Z,6.20
2023-05-16T19:52:51.458Z,6.80
2023-05-16T19:55:18.497Z,6.60
2023-05-16T19:57:47.883Z,6.70
2023-05-16T20:00:15.585Z,6.50
2023-05-16T20:02:43.680Z,6.80
2023-05-16T20:05:11.222Z,6.60
2023-05-16T20:07:40.590Z,6.30
2023-05-16T20:10:09.240Z,6.30
2023-05-16T20:12:36.489Z,6.50
2023-05-16T20:15:08.373Z,6.60
2023-05-16T20:17:35.775Z,6.40
2023-05-16T20:20:03.807Z,6.60
2023-05-16T20:22:31.032Z,6.30
2023-05-16T20:24:58.215Z,6.30
2023-05-16T20:27:25.336Z,6.10
2023-05-16T20:29:52.660Z,5.80
2023-05-16T20:32:19.788Z,5.80
2023-05-16T20:34:47.030Z,5.40
2023-05-16T20:37:14.401Z,5.40
2023-05-16T20:39:41.675Z,6.10
2023-05-16T20:42:12.170Z,5.60
2023-05-16T20:44:39.815Z,5.80
2023-05-16T20:47:07.159Z,4.70
2023-05-16T20:49:37.507Z,5.00
2023-05-16T20:52:04.880Z,5.00
2023-05-16T20:54:32.647Z,5.10
2023-05-16T20:56:59.801Z,4.70
2023-05-16T20:59:26.835Z,8.60
2023-05-16T21:01:54.006Z,6.80
2023-05-16T21:04:21.130Z,5.40
2023-05-16T21:06:48.210Z,4.80
2023-05-16T21:09:15.327Z,4.70
2023-05-16T21:11:42.472Z,4.50
2023-05-16T21:14:09.586Z,4.60
2023-05-16T21:25:36.613Z,4.60
2023-05-16T21:28:04.029Z,6.00
2023-05-16T21:30:31.106Z,5.60
2023-05-16T21:32:58.429Z,5.20
2023-05-16T21:35:27.054Z,6.30
2023-05-16T21:37:54.264Z,12.00
2023-05-16T21:40:25.182Z,10.30
2023-05-16T21:42:52.905Z,11.70
2023-05-16T21:45:20.150Z,8.10
2023-05-16T21:47:47.375Z,6.30
2023-05-16T21:50:14.612Z,6.20
2023-05-16T21:52:41.720Z,5.10
2023-05-16T21:55:09.135Z,4.90
2023-05-16T21:57:36.459Z,4.10
2023-05-16T22:00:06.977Z,4.80
2023-05-16T22:02:36.025Z,3.70
2023-05-16T22:05:03.512Z,3.60
2023-05-16T22:07:30.897Z,4.30
2023-05-16T22:09:58.408Z,3.70
2023-05-16T22:12:26.513Z,3.40
2023-05-16T22:14:53.661Z,3.80
2023-05-16T22:17:20.974Z,3.60
2023-05-16T22:19:48.241Z,3.40
2023-05-16T22:22:15.482Z,3.60
2023-05-16T22:24:42.541Z,3.80
2023-05-16T22:27:09.641Z,3.40
2023-05-16T22:29:39.582Z,2.90
2023-05-16T22:32:07.352Z,3.00
2023-05-16T22:34:35.339Z,3.10
2023-05-16T22:37:02.449Z,2.70
2023-05-16T22:39:29.494Z,2.90
2023-05-16T22:41:56.594Z,2.90
2023-05-16T22:44:23.684Z,3.40
2023-05-16T22:46:50.792Z,3.50
2023-05-16T22:49:19.136Z,3.50
2023-05-16T22:51:46.309Z,3.30
2023-05-16T22:54:13.469Z,3.50
2023-05-16T22:56:40.996Z,3.40
2023-05-16T22:59:08.062Z,3.10
2023-05-16T23:01:35.651Z,3.70
2023-05-16T23:04:05.068Z,3.30
2023-05-16T23:06:32.814Z,3.40
2023-05-16T23:09:04.814Z,3.20
2023-05-16T23:11:32.669Z,4.00
2023-05-16T23:13:59.766Z,3.30
2023-05-16T23:16:26.877Z,3.80
2023-05-16T23:18:53.976Z,3.40
2023-05-16T23:21:21.153Z,3.50
2023-05-16T23:23:48.168Z,3.60
2023-05-16T23:26:15.176Z,3.50
2023-05-16T23:28:42.178Z,3.60
2023-05-16T23:31:09.212Z,3.50
2023-05-16T23:33:36.319Z,3.70
2023-05-16T23:36:03.625Z,3.50
2023-05-16T23:38:30.747Z,3.50
2023-05-16T23:40:57.773Z,3.20
2023-05-16T23:43:24.872Z,3.00
2023-05-16T23:45:51.935Z,3.40
2023-05-16T23:48:19.049Z,3.30
2023-05-16T23:50:46.142Z,3.80
2023-05-16T23:53:13.213Z,3.40
2023-05-16T23:55:40.302Z,3.30
2023-05-16T23:58:07.433Z,3.20
